sensor_id;sensor_type;location;lat;lon;timestamp;P1;durP1;ratioP1;P2;durP2;ratioP2
15449;SDS011;7826;49.784;9.934;2022-08-19T00:01:28;10.90;;;7.93;;
15449;SDS011;7826;49.784;9.934;2022-08-19T00:03:56;16.60;;;8.80;;
15449;SDS011;7826;49.784;9.934;2022-08-19T00:06:23;26.10;;;12.70;;
15449;SDS011;7826;49.784;9.934;2022-08-19T00:08:50;35.50;;;13.53;;
15449;SDS011;7826;49.784;9.934;2022-08-19T00:11:17;29.97;;;13.33;;
15449;SDS011;7826;49.784;9.934;2022-08-19T00:13:44;25.03;;;13.10;;
15449;SDS011;7826;49.784;9.934;2022-08-19T00:16:14;20.50;;;13.90;;
15449;SDS011;7826;49.784;9.934;2022-08-19T00:18:47;23.03;;;14.27;;
15449;SDS011;7826;49.784;9.934;2022-08-19T00:21:14;25.13;;;14.23;;
15449;SDS011;7826;49.784;9.934;2022-08-19T00:23:40;23.40;;;15.47;;
15449;SDS011;7826;49.784;9.934;2022-08-19T00:26:08;23.43;;;12.73;;
15449;SDS011;7826;49.784;9.934;2022-08-19T00:28:36;22.53;;;12.67;;
15449;SDS011;7826;49.784;9.934;2022-08-19T00:31:03;15.67;;;10.80;;
15449;SDS011;7826;49.784;9.934;2022-08-19T00:33:31;13.30;;;9.90;;
15449;SDS011;7826;49.784;9.934;2022-08-19T00:36:01;13.47;;;9.20;;
15449;SDS011;7826;49.784;9.934;2022-08-19T00:38:32;12.97;;;7.77;;
15449;SDS011;7826;49.784;9.934;2022-08-19T00:40:59;9.30;;;6.30;;
15449;SDS011;7826;49.784;9.934;2022-08-19T00:43:26;11.03;;;5.97;;
15449;SDS011;7826;49.784;9.934;2022-08-19T00:45:53;8.33;;;5.13;;
15449;SDS011;7826;49.784;9.934;2022-08-19T00:48:21;6.07;;;4.47;;
15449;SDS011;7826;49.784;9.934;2022-08-19T00:50:49;4.53;;;3.27;;
15449;SDS011;7826;49.784;9.934;2022-08-19T00:53:19;5.53;;;3.30;;
15449;SDS011;7826;49.784;9.934;2022-08-19T00:55:49;6.50;;;3.57;;
15449;SDS011;7826;49.784;9.934;2022-08-19T00:58:19;4.67;;;3.53;;
15449;SDS011;7826;49.784;9.934;2022-08-19T01:00:47;5.33;;;3.30;;
15449;SDS011;7826;49.784;9.934;2022-08-19T01:03:16;5.27;;;3.40;;
15449;SDS011;7826;49.784;9.934;2022-08-19T01:05:45;5.10;;;3.17;;
15449;SDS011;7826;49.784;9.934;2022-08-19T01:08:13;5.00;;;3.90;;
15449;SDS011;7826;49.784;9.934;2022-08-19T01:10:52;7.30;;;3.63;;
15449;SDS011;7826;49.784;9.934;2022-08-19T01:13:22;6.10;;;3.83;;
15449;SDS011;7826;49.784;9.934;2022-08-19T01:15:58;5.70;;;3.47;;
15449;SDS011;7826;49.784;9.934;2022-08-19T01:18:28;4.60;;;3.23;;
15449;SDS011;7826;49.784;9.934;2022-08-19T01:21:03;6.20;;;3.50;;
15449;SDS011;7826;49.784;9.934;2022-08-19T01:23:44;4.00;;;2.60;;
15449;SDS011;7826;49.784;9.934;2022-08-19T01:26:19;4.90;;;3.80;;
15449;SDS011;7826;49.784;9.934;2022-08-19T01:29:01;3.93;;;2.70;;
15449;SDS011;7826;49.784;9.934;2022-08-19T01:31:37;5.37;;;2.87;;
15449;SDS011;7826;49.784;9.934;2022-08-19T01:34:07;3.70;;;2.77;;
15449;SDS011;7826;49.784;9.934;2022-08-19T01:36:37;4.87;;;3.50;;
15449;SDS011;7826;49.784;9.934;2022-08-19T01:39:14;5.00;;;3.33;;
15449;SDS011;7826;49.784;9.934;2022-08-19T01:42:00;4.17;;;3.20;;
15449;SDS011;7826;49.784;9.934;2022-08-19T01:44:32;5.23;;;3.07;;
15449;SDS011;7826;49.784;9.934;2022-08-19T01:47:01;4.40;;;3.63;;
15449;SDS011;7826;49.784;9.934;2022-08-19T01:49:33;5.40;;;4.00;;
15449;SDS011;7826;49.784;9.934;2022-08-19T01:52:01;6.20;;;4.10;;
15449;SDS011;7826;49.784;9.934;2022-08-19T01:54:29;4.90;;;2.70;;
15449;SDS011;7826;49.784;9.934;2022-08-19T01:57:10;4.77;;;3.30;;
15449;SDS011;7826;49.784;9.934;2022-08-19T01:59:43;4.17;;;3.00;;
15449;SDS011;7826;49.784;9.934;2022-08-19T02:02:13;3.90;;;3.30;;
15449;SDS011;7826;49.784;9.934;2022-08-19T02:04:50;3.97;;;3.00;;
15449;SDS011;7826;49.784;9.934;2022-08-19T02:07:21;5.37;;;3.27;;
15449;SDS011;7826;49.784;9.934;2022-08-19T02:10:13;4.37;;;3.30;;
15449;SDS011;7826;49.784;9.934;2022-08-19T02:12:49;3.97;;;3.00;;
15449;SDS011;7826;49.784;9.934;2022-08-19T02:15:23;4.77;;;3.70;;
15449;SDS011;7826;49.784;9.934;2022-08-19T02:17:55;5.87;;;4.10;;
15449;SDS011;7826;49.784;9.934;2022-08-19T02:20:33;4.13;;;3.23;;
15449;SDS011;7826;49.784;9.934;2022-08-19T02:23:07;4.03;;;3.17;;
15449;SDS011;7826;49.784;9.934;2022-08-19T02:25:35;4.47;;;3.30;;
15449;SDS011;7826;49.784;9.934;2022-08-19T02:28:03;3.77;;;3.07;;
15449;SDS011;7826;49.784;9.934;2022-08-19T02:30:32;3.63;;;3.20;;
15449;SDS011;7826;49.784;9.934;2022-08-19T02:33:03;5.63;;;3.10;;
15449;SDS011;7826;49.784;9.934;2022-08-19T02:35:40;5.83;;;3.73;;
15449;SDS011;7826;49.784;9.934;2022-08-19T02:38:18;4.50;;;3.20;;
15449;SDS011;7826;49.784;9.934;2022-08-19T02:40:57;4.97;;;3.30;;
15449;SDS011;7826;49.784;9.934;2022-08-19T02:43:29;5.40;;;2.90;;
15449;SDS011;7826;49.784;9.934;2022-08-19T02:46:10;3.63;;;3.10;;
15449;SDS011;7826;49.784;9.934;2022-08-19T02:48:43;5.60;;;3.57;;
15449;SDS011;7826;49.784;9.934;2022-08-19T02:51:15;5.30;;;3.83;;
15449;SDS011;7826;49.784;9.934;2022-08-19T02:53:46;4.03;;;3.13;;
15449;SDS011;7826;49.784;9.934;2022-08-19T02:56:12;4.00;;;3.17;;
15449;SDS011;7826;49.784;9.934;2022-08-19T02:58:40;5.57;;;2.93;;
15449;SDS011;7826;49.784;9.934;2022-08-19T03:01:07;5.43;;;3.60;;
15449;SDS011;7826;49.784;9.934;2022-08-19T03:03:33;4.87;;;3.37;;
15449;SDS011;7826;49.784;9.934;2022-08-19T03:06:07;4.33;;;3.00;;
15449;SDS011;7826;49.784;9.934;2022-08-19T03:08:36;4.43;;;3.20;;
15449;SDS011;7826;49.784;9.934;2022-08-19T03:11:04;4.43;;;3.07;;
15449;SDS011;7826;49.784;9.934;2022-08-19T03:13:31;5.37;;;3.73;;
15449;SDS011;7826;49.784;9.934;2022-08-19T03:15:57;3.93;;;3.10;;
15449;SDS011;7826;49.784;9.934;2022-08-19T03:18:24;3.57;;;2.67;;
15449;SDS011;7826;49.784;9.934;2022-08-19T03:20:50;3.70;;;3.07;;
15449;SDS011;7826;49.784;9.934;2022-08-19T03:23:39;3.37;;;2.93;;
15449;SDS011;7826;49.784;9.934;2022-08-19T03:26:23;5.47;;;3.50;;
15449;SDS011;7826;49.784;9.934;2022-08-19T03:28:50;3.93;;;3.03;;
15449;SDS011;7826;49.784;9.934;2022-08-19T03:31:20;4.77;;;3.20;;
15449;SDS011;7826;49.784;9.934;2022-08-19T03:33:51;3.80;;;2.73;;
15449;SDS011;7826;49.784;9.934;2022-08-19T03:36:19;3.37;;;2.87;;
15449;SDS011;7826;49.784;9.934;2022-08-19T03:38:55;5.03;;;3.20;;
15449;SDS011;7826;49.784;9.934;2022-08-19T03:41:25;4.23;;;3.27;;
15449;SDS011;7826;49.784;9.934;2022-08-19T03:43:54;4.37;;;3.30;;
15449;SDS011;7826;49.784;9.934;2022-08-19T03:46:23;3.97;;;2.80;;
15449;SDS011;7826;49.784;9.934;2022-08-19T03:48:55;4.57;;;3.10;;
15449;SDS011;7826;49.784;9.934;2022-08-19T03:51:24;3.43;;;3.07;;
15449;SDS011;7826;49.784;9.934;2022-08-19T03:53:56;4.87;;;3.30;;
15449;SDS011;7826;49.784;9.934;2022-08-19T03:56:24;2.97;;;2.40;;
15449;SDS011;7826;49.784;9.934;2022-08-19T03:58:53;4.57;;;3.00;;
15449;SDS011;7826;49.784;9.934;2022-08-19T04:01:21;4.73;;;3.40;;
15449;SDS011;7826;49.784;9.934;2022-08-19T04:03:49;4.20;;;3.13;;
15449;SDS011;7826;49.784;9.934;2022-08-19T04:06:19;3.97;;;2.87;;
15449;SDS011;7826;49.784;9.934;2022-08-19T04:08:49;4.20;;;2.80;;
15449;SDS011;7826;49.784;9.934;2022-08-19T04:11:17;3.60;;;2.63;;
15449;SDS011;7826;49.784;9.934;2022-08-19T04:13:49;3.47;;;2.83;;
15449;SDS011;7826;49.784;9.934;2022-08-19T04:16:17;4.07;;;3.20;;
15449;SDS011;7826;49.784;9.934;2022-08-19T04:18:45;4.47;;;3.17;;
15449;SDS011;7826;49.784;9.934;2022-08-19T04:21:24;4.07;;;3.17;;
15449;SDS011;7826;49.784;9.934;2022-08-19T04:23:52;4.97;;;3.30;;
15449;SDS011;7826;49.784;9.934;2022-08-19T04:26:22;6.47;;;4.20;;
15449;SDS011;7826;49.784;9.934;2022-08-19T04:28:53;4.43;;;2.93;;
15449;SDS011;7826;49.784;9.934;2022-08-19T04:31:22;5.80;;;3.60;;
15449;SDS011;7826;49.784;9.934;2022-08-19T04:33:54;4.97;;;2.77;;
15449;SDS011;7826;49.784;9.934;2022-08-19T04:36:23;5.30;;;3.20;;
15449;SDS011;7826;49.784;9.934;2022-08-19T04:38:56;4.80;;;3.20;;
15449;SDS011;7826;49.784;9.934;2022-08-19T04:41:24;3.80;;;3.33;;
15449;SDS011;7826;49.784;9.934;2022-08-19T04:44:09;4.00;;;3.20;;
15449;SDS011;7826;49.784;9.934;2022-08-19T04:46:36;3.97;;;2.57;;
15449;SDS011;7826;49.784;9.934;2022-08-19T04:49:04;4.00;;;3.00;;
15449;SDS011;7826;49.784;9.934;2022-08-19T04:51:32;4.63;;;3.00;;
15449;SDS011;7826;49.784;9.934;2022-08-19T04:53:59;4.37;;;3.27;;
15449;SDS011;7826;49.784;9.934;2022-08-19T04:56:27;5.37;;;3.83;;
15449;SDS011;7826;49.784;9.934;2022-08-19T04:58:54;3.97;;;2.83;;
15449;SDS011;7826;49.784;9.934;2022-08-19T05:01:22;4.07;;;2.73;;
15449;SDS011;7826;49.784;9.934;2022-08-19T05:03:53;3.47;;;2.73;;
15449;SDS011;7826;49.784;9.934;2022-08-19T05:06:22;5.20;;;3.73;;
15449;SDS011;7826;49.784;9.934;2022-08-19T05:08:48;2.93;;;2.43;;
15449;SDS011;7826;49.784;9.934;2022-08-19T05:11:16;3.37;;;3.07;;
15449;SDS011;7826;49.784;9.934;2022-08-19T05:13:45;2.27;;;1.90;;
15449;SDS011;7826;49.784;9.934;2022-08-19T05:16:14;3.17;;;2.27;;
15449;SDS011;7826;49.784;9.934;2022-08-19T05:18:43;2.10;;;2.00;;
15449;SDS011;7826;49.784;9.934;2022-08-19T05:21:29;2.70;;;2.20;;
15449;SDS011;7826;49.784;9.934;2022-08-19T05:24:14;2.37;;;2.17;;
15449;SDS011;7826;49.784;9.934;2022-08-19T05:26:43;2.70;;;2.50;;
15449;SDS011;7826;49.784;9.934;2022-08-19T05:29:12;2.40;;;2.20;;
15449;SDS011;7826;49.784;9.934;2022-08-19T05:31:40;2.43;;;1.60;;
15449;SDS011;7826;49.784;9.934;2022-08-19T05:34:07;1.30;;;1.20;;
15449;SDS011;7826;49.784;9.934;2022-08-19T05:36:40;1.00;;;1.00;;
15449;SDS011;7826;49.784;9.934;2022-08-19T05:39:15;1.67;;;1.57;;
15449;SDS011;7826;49.784;9.934;2022-08-19T05:41:44;1.63;;;1.53;;
15449;SDS011;7826;49.784;9.934;2022-08-19T05:44:13;1.50;;;1.47;;
15449;SDS011;7826;49.784;9.934;2022-08-19T05:46:42;1.10;;;1.00;;
15449;SDS011;7826;49.784;9.934;2022-08-19T05:49:12;1.70;;;1.60;;
15449;SDS011;7826;49.784;9.934;2022-08-19T05:51:40;1.67;;;1.33;;
15449;SDS011;7826;49.784;9.934;2022-08-19T05:54:06;1.40;;;1.30;;
15449;SDS011;7826;49.784;9.934;2022-08-19T05:56:34;1.90;;;1.77;;
15449;SDS011;7826;49.784;9.934;2022-08-19T05:59:04;1.07;;;1.03;;
15449;SDS011;7826;49.784;9.934;2022-08-19T06:01:37;2.67;;;1.30;;
15449;SDS011;7826;49.784;9.934;2022-08-19T06:04:05;1.10;;;1.10;;
15449;SDS011;7826;49.784;9.934;2022-08-19T06:06:32;1.30;;;1.30;;
15449;SDS011;7826;49.784;9.934;2022-08-19T06:09:03;1.70;;;1.60;;
15449;SDS011;7826;49.784;9.934;2022-08-19T06:11:38;1.07;;;1.07;;
15449;SDS011;7826;49.784;9.934;2022-08-19T06:14:05;1.23;;;0.97;;
15449;SDS011;7826;49.784;9.934;2022-08-19T06:16:40;2.00;;;1.67;;
15449;SDS011;7826;49.784;9.934;2022-08-19T06:19:09;1.50;;;1.50;;
15449;SDS011;7826;49.784;9.934;2022-08-19T06:21:38;1.80;;;1.67;;
15449;SDS011;7826;49.784;9.934;2022-08-19T06:24:06;1.63;;;1.53;;
15449;SDS011;7826;49.784;9.934;2022-08-19T06:26:36;1.77;;;1.63;;
15449;SDS011;7826;49.784;9.934;2022-08-19T06:29:04;1.60;;;1.50;;
15449;SDS011;7826;49.784;9.934;2022-08-19T06:31:32;2.20;;;1.30;;
15449;SDS011;7826;49.784;9.934;2022-08-19T06:34:00;1.53;;;1.43;;
15449;SDS011;7826;49.784;9.934;2022-08-19T06:36:30;2.73;;;1.70;;
15449;SDS011;7826;49.784;9.934;2022-08-19T06:39:07;1.37;;;1.27;;
15449;SDS011;7826;49.784;9.934;2022-08-19T06:41:37;0.97;;;0.97;;
15449;SDS011;7826;49.784;9.934;2022-08-19T06:44:06;1.00;;;1.00;;
15449;SDS011;7826;49.784;9.934;2022-08-19T06:46:33;1.50;;;1.40;;
15449;SDS011;7826;49.784;9.934;2022-08-19T06:49:00;1.23;;;1.13;;
15449;SDS011;7826;49.784;9.934;2022-08-19T06:51:26;1.90;;;1.53;;
15449;SDS011;7826;49.784;9.934;2022-08-19T06:53:53;1.30;;;1.20;;
15449;SDS011;7826;49.784;9.934;2022-08-19T06:56:22;1.33;;;1.23;;
15449;SDS011;7826;49.784;9.934;2022-08-19T06:58:51;1.77;;;1.67;;
15449;SDS011;7826;49.784;9.934;2022-08-19T07:01:18;1.17;;;1.17;;
15449;SDS011;7826;49.784;9.934;2022-08-19T07:03:45;1.43;;;1.27;;
15449;SDS011;7826;49.784;9.934;2022-08-19T07:06:13;1.33;;;1.23;;
15449;SDS011;7826;49.784;9.934;2022-08-19T07:08:43;1.43;;;1.33;;
15449;SDS011;7826;49.784;9.934;2022-08-19T07:11:13;1.77;;;1.60;;
15449;SDS011;7826;49.784;9.934;2022-08-19T07:13:43;1.67;;;1.57;;
15449;SDS011;7826;49.784;9.934;2022-08-19T07:16:16;1.67;;;1.57;;
15449;SDS011;7826;49.784;9.934;2022-08-19T07:18:45;1.37;;;1.27;;
15449;SDS011;7826;49.784;9.934;2022-08-19T07:21:15;1.90;;;1.80;;
15449;SDS011;7826;49.784;9.934;2022-08-19T07:23:45;1.87;;;1.77;;
15449;SDS011;7826;49.784;9.934;2022-08-19T07:26:13;1.83;;;1.30;;
15449;SDS011;7826;49.784;9.934;2022-08-19T07:28:45;2.20;;;1.57;;
15449;SDS011;7826;49.784;9.934;2022-08-19T07:31:14;1.90;;;1.77;;
15449;SDS011;7826;49.784;9.934;2022-08-19T07:33:44;2.20;;;1.43;;
15449;SDS011;7826;49.784;9.934;2022-08-19T07:36:13;2.13;;;1.93;;
15449;SDS011;7826;49.784;9.934;2022-08-19T07:38:41;1.10;;;1.10;;
15449;SDS011;7826;49.784;9.934;2022-08-19T07:41:11;1.73;;;1.63;;
15449;SDS011;7826;49.784;9.934;2022-08-19T07:43:39;1.30;;;1.20;;
15449;SDS011;7826;49.784;9.934;2022-08-19T07:46:05;1.60;;;1.50;;
15449;SDS011;7826;49.784;9.934;2022-08-19T07:48:32;1.33;;;1.23;;
15449;SDS011;7826;49.784;9.934;2022-08-19T07:51:00;2.00;;;1.50;;
15449;SDS011;7826;49.784;9.934;2022-08-19T07:53:28;2.17;;;1.83;;
15449;SDS011;7826;49.784;9.934;2022-08-19T07:55:56;1.60;;;1.50;;
15449;SDS011;7826;49.784;9.934;2022-08-19T07:58:27;1.37;;;1.27;;
15449;SDS011;7826;49.784;9.934;2022-08-19T08:00:53;1.90;;;1.80;;
15449;SDS011;7826;49.784;9.934;2022-08-19T08:03:20;1.70;;;1.60;;
15449;SDS011;7826;49.784;9.934;2022-08-19T08:06:07;1.77;;;1.67;;
15449;SDS011;7826;49.784;9.934;2022-08-19T08:08:52;1.50;;;1.30;;
15449;SDS011;7826;49.784;9.934;2022-08-19T08:11:38;2.60;;;2.33;;
15449;SDS011;7826;49.784;9.934;2022-08-19T08:14:06;1.43;;;1.33;;
15449;SDS011;7826;49.784;9.934;2022-08-19T08:16:34;1.67;;;1.47;;
15449;SDS011;7826;49.784;9.934;2022-08-19T08:19:05;1.23;;;1.23;;
15449;SDS011;7826;49.784;9.934;2022-08-19T08:21:32;1.03;;;1.00;;
15449;SDS011;7826;49.784;9.934;2022-08-19T08:23:59;1.47;;;1.37;;
15449;SDS011;7826;49.784;9.934;2022-08-19T08:26:26;1.13;;;1.00;;
15449;SDS011;7826;49.784;9.934;2022-08-19T08:28:52;1.80;;;1.67;;
15449;SDS011;7826;49.784;9.934;2022-08-19T08:31:19;1.03;;;1.03;;
15449;SDS011;7826;49.784;9.934;2022-08-19T08:33:46;1.50;;;1.40;;
15449;SDS011;7826;49.784;9.934;2022-08-19T08:36:13;1.13;;;1.10;;
15449;SDS011;7826;49.784;9.934;2022-08-19T08:38:40;1.33;;;1.30;;
15449;SDS011;7826;49.784;9.934;2022-08-19T08:44:00;1.60;;;1.27;;
15449;SDS011;7826;49.784;9.934;2022-08-19T08:46:39;1.20;;;1.10;;
15449;SDS011;7826;49.784;9.934;2022-08-19T08:51:42;1.67;;;1.57;;
15449;SDS011;7826;49.784;9.934;2022-08-19T08:54:13;2.00;;;1.40;;
15449;SDS011;7826;49.784;9.934;2022-08-19T08:56:45;1.60;;;1.50;;
15449;SDS011;7826;49.784;9.934;2022-08-19T08:59:48;1.00;;;1.00;;
15449;SDS011;7826;49.784;9.934;2022-08-19T09:02:08;1.23;;;1.20;;
15449;SDS011;7826;49.784;9.934;2022-08-19T09:04:35;1.60;;;1.50;;
15449;SDS011;7826;49.784;9.934;2022-08-19T09:09:52;1.40;;;1.37;;
15449;SDS011;7826;49.784;9.934;2022-08-19T09:15:07;1.53;;;1.43;;
15449;SDS011;7826;49.784;9.934;2022-08-19T09:17:40;1.90;;;1.73;;
15449;SDS011;7826;49.784;9.934;2022-08-19T09:22:39;2.07;;;1.53;;
15449;SDS011;7826;49.784;9.934;2022-08-19T09:25:10;1.37;;;1.30;;
15449;SDS011;7826;49.784;9.934;2022-08-19T09:27:39;1.37;;;1.13;;
15449;SDS011;7826;49.784;9.934;2022-08-19T09:30:08;1.60;;;1.50;;
15449;SDS011;7826;49.784;9.934;2022-08-19T09:32:37;0.97;;;0.97;;
15449;SDS011;7826;49.784;9.934;2022-08-19T09:35:04;1.53;;;1.43;;
15449;SDS011;7826;49.784;9.934;2022-08-19T09:37:32;1.73;;;1.60;;
15449;SDS011;7826;49.784;9.934;2022-08-19T09:39:58;1.63;;;1.53;;
15449;SDS011;7826;49.784;9.934;2022-08-19T09:42:26;1.50;;;1.40;;
15449;SDS011;7826;49.784;9.934;2022-08-19T09:44:53;1.63;;;1.47;;
15449;SDS011;7826;49.784;9.934;2022-08-19T09:47:19;1.13;;;1.13;;
15449;SDS011;7826;49.784;9.934;2022-08-19T09:49:45;1.43;;;1.33;;
15449;SDS011;7826;49.784;9.934;2022-08-19T09:52:14;1.17;;;1.13;;
15449;SDS011;7826;49.784;9.934;2022-08-19T09:54:41;0.80;;;0.80;;
15449;SDS011;7826;49.784;9.934;2022-08-19T09:57:08;1.13;;;1.10;;
15449;SDS011;7826;49.784;9.934;2022-08-19T09:59:35;2.30;;;1.50;;
15449;SDS011;7826;49.784;9.934;2022-08-19T10:02:01;1.50;;;0.90;;
15449;SDS011;7826;49.784;9.934;2022-08-19T10:04:28;1.00;;;1.00;;
15449;SDS011;7826;49.784;9.934;2022-08-19T10:07:14;1.23;;;1.20;;
15449;SDS011;7826;49.784;9.934;2022-08-19T10:09:41;0.83;;;0.83;;
15449;SDS011;7826;49.784;9.934;2022-08-19T10:12:08;2.10;;;1.30;;
15449;SDS011;7826;49.784;9.934;2022-08-19T10:14:34;1.13;;;1.03;;
15449;SDS011;7826;49.784;9.934;2022-08-19T10:17:01;0.83;;;0.83;;
15449;SDS011;7826;49.784;9.934;2022-08-19T10:19:28;0.83;;;0.83;;
15449;SDS011;7826;49.784;9.934;2022-08-19T10:22:07;0.83;;;0.83;;
15449;SDS011;7826;49.784;9.934;2022-08-19T10:24:33;0.73;;;0.73;;
15449;SDS011;7826;49.784;9.934;2022-08-19T10:27:00;0.93;;;0.93;;
15449;SDS011;7826;49.784;9.934;2022-08-19T10:29:31;0.63;;;0.63;;
15449;SDS011;7826;49.784;9.934;2022-08-19T10:32:04;1.00;;;1.00;;
15449;SDS011;7826;49.784;9.934;2022-08-19T10:34:33;0.80;;;0.80;;
15449;SDS011;7826;49.784;9.934;2022-08-19T10:37:01;0.90;;;0.90;;
15449;SDS011;7826;49.784;9.934;2022-08-19T10:39:31;0.80;;;0.80;;
15449;SDS011;7826;49.784;9.934;2022-08-19T10:42:03;0.80;;;0.80;;
15449;SDS011;7826;49.784;9.934;2022-08-19T10:44:35;1.00;;;1.00;;
15449;SDS011;7826;49.784;9.934;2022-08-19T10:47:02;1.03;;;1.00;;
15449;SDS011;7826;49.784;9.934;2022-08-19T10:49:29;0.70;;;0.70;;
15449;SDS011;7826;49.784;9.934;2022-08-19T10:51:57;0.80;;;0.80;;
15449;SDS011;7826;49.784;9.934;2022-08-19T10:54:42;0.70;;;0.70;;
15449;SDS011;7826;49.784;9.934;2022-08-19T10:57:30;0.90;;;0.90;;
15449;SDS011;7826;49.784;9.934;2022-08-19T10:59:56;0.87;;;0.87;;
15449;SDS011;7826;49.784;9.934;2022-08-19T11:02:23;0.50;;;0.50;;
15449;SDS011;7826;49.784;9.934;2022-08-19T11:04:49;0.80;;;0.80;;
15449;SDS011;7826;49.784;9.934;2022-08-19T11:07:17;0.80;;;0.80;;
15449;SDS011;7826;49.784;9.934;2022-08-19T11:09:43;0.90;;;0.90;;
15449;SDS011;7826;49.784;9.934;2022-08-19T11:12:12;0.97;;;0.97;;
15449;SDS011;7826;49.784;9.934;2022-08-19T11:14:39;0.80;;;0.80;;
15449;SDS011;7826;49.784;9.934;2022-08-19T11:17:06;0.73;;;0.73;;
15449;SDS011;7826;49.784;9.934;2022-08-19T11:19:32;0.57;;;0.57;;
15449;SDS011;7826;49.784;9.934;2022-08-19T11:21:59;0.60;;;0.60;;
15449;SDS011;7826;49.784;9.934;2022-08-19T11:24:28;0.90;;;0.90;;
15449;SDS011;7826;49.784;9.934;2022-08-19T11:26:55;0.80;;;0.80;;
15449;SDS011;7826;49.784;9.934;2022-08-19T11:29:28;1.10;;;1.10;;
15449;SDS011;7826;49.784;9.934;2022-08-19T11:31:54;0.97;;;0.97;;
15449;SDS011;7826;49.784;9.934;2022-08-19T11:34:23;0.60;;;0.60;;
15449;SDS011;7826;49.784;9.934;2022-08-19T11:36:54;0.60;;;0.60;;
15449;SDS011;7826;49.784;9.934;2022-08-19T11:39:25;0.70;;;0.70;;
15449;SDS011;7826;49.784;9.934;2022-08-19T11:41:53;0.70;;;0.70;;
15449;SDS011;7826;49.784;9.934;2022-08-19T11:44:19;1.40;;;1.30;;
15449;SDS011;7826;49.784;9.934;2022-08-19T11:46:46;0.63;;;0.63;;
15449;SDS011;7826;49.784;9.934;2022-08-19T11:49:13;0.63;;;0.63;;
15449;SDS011;7826;49.784;9.934;2022-08-19T11:51:42;2.67;;;1.23;;
15449;SDS011;7826;49.784;9.934;2022-08-19T11:54:09;0.93;;;0.60;;
15449;SDS011;7826;49.784;9.934;2022-08-19T11:56:36;0.63;;;0.63;;
15449;SDS011;7826;49.784;9.934;2022-08-19T11:59:03;0.77;;;0.77;;
15449;SDS011;7826;49.784;9.934;2022-08-19T12:01:29;0.70;;;0.70;;
15449;SDS011;7826;49.784;9.934;2022-08-19T12:03:58;0.77;;;0.77;;
15449;SDS011;7826;49.784;9.934;2022-08-19T12:06:28;0.80;;;0.80;;
15449;SDS011;7826;49.784;9.934;2022-08-19T12:09:00;0.63;;;0.63;;
15449;SDS011;7826;49.784;9.934;2022-08-19T12:11:30;0.97;;;0.97;;
15449;SDS011;7826;49.784;9.934;2022-08-19T12:13:56;0.83;;;0.83;;
15449;SDS011;7826;49.784;9.934;2022-08-19T12:16:24;0.77;;;0.77;;
15449;SDS011;7826;49.784;9.934;2022-08-19T12:18:52;0.70;;;0.70;;
15449;SDS011;7826;49.784;9.934;2022-08-19T12:21:21;0.70;;;0.70;;
15449;SDS011;7826;49.784;9.934;2022-08-19T12:23:50;0.80;;;0.80;;
15449;SDS011;7826;49.784;9.934;2022-08-19T12:26:18;0.57;;;0.57;;
15449;SDS011;7826;49.784;9.934;2022-08-19T12:28:44;0.67;;;0.67;;
15449;SDS011;7826;49.784;9.934;2022-08-19T12:31:11;0.70;;;0.70;;
15449;SDS011;7826;49.784;9.934;2022-08-19T12:33:38;0.80;;;0.80;;
15449;SDS011;7826;49.784;9.934;2022-08-19T12:36:06;1.00;;;1.00;;
15449;SDS011;7826;49.784;9.934;2022-08-19T12:38:35;0.63;;;0.63;;
15449;SDS011;7826;49.784;9.934;2022-08-19T12:41:02;0.53;;;0.53;;
15449;SDS011;7826;49.784;9.934;2022-08-19T12:43:32;0.60;;;0.60;;
15449;SDS011;7826;49.784;9.934;2022-08-19T12:46:00;0.70;;;0.70;;
15449;SDS011;7826;49.784;9.934;2022-08-19T12:48:28;0.60;;;0.60;;
15449;SDS011;7826;49.784;9.934;2022-08-19T12:50:54;0.50;;;0.50;;
15449;SDS011;7826;49.784;9.934;2022-08-19T12:53:21;0.63;;;0.63;;
15449;SDS011;7826;49.784;9.934;2022-08-19T12:55:47;0.60;;;0.60;;
15449;SDS011;7826;49.784;9.934;2022-08-19T12:58:13;0.47;;;0.47;;
15449;SDS011;7826;49.784;9.934;2022-08-19T13:00:40;0.60;;;0.60;;
15449;SDS011;7826;49.784;9.934;2022-08-19T13:03:06;0.60;;;0.60;;
15449;SDS011;7826;49.784;9.934;2022-08-19T13:05:33;0.60;;;0.60;;
15449;SDS011;7826;49.784;9.934;2022-08-19T13:08:00;0.70;;;0.70;;
15449;SDS011;7826;49.784;9.934;2022-08-19T13:10:31;0.57;;;0.57;;
15449;SDS011;7826;49.784;9.934;2022-08-19T13:13:01;0.50;;;0.50;;
15449;SDS011;7826;49.784;9.934;2022-08-19T13:15:33;0.50;;;0.50;;
15449;SDS011;7826;49.784;9.934;2022-08-19T13:18:00;0.50;;;0.50;;
15449;SDS011;7826;49.784;9.934;2022-08-19T13:20:27;0.60;;;0.60;;
15449;SDS011;7826;49.784;9.934;2022-08-19T13:22:54;0.60;;;0.60;;
15449;SDS011;7826;49.784;9.934;2022-08-19T13:25:20;0.60;;;0.60;;
15449;SDS011;7826;49.784;9.934;2022-08-19T13:27:47;0.50;;;0.50;;
15449;SDS011;7826;49.784;9.934;2022-08-19T13:30:16;0.50;;;0.50;;
15449;SDS011;7826;49.784;9.934;2022-08-19T13:33:03;0.50;;;0.50;;
15449;SDS011;7826;49.784;9.934;2022-08-19T13:35:37;0.63;;;0.63;;
15449;SDS011;7826;49.784;9.934;2022-08-19T13:38:12;0.73;;;0.73;;
15449;SDS011;7826;49.784;9.934;2022-08-19T13:40:40;0.50;;;0.50;;
15449;SDS011;7826;49.784;9.934;2022-08-19T13:43:07;0.60;;;0.60;;
15449;SDS011;7826;49.784;9.934;2022-08-19T13:45:35;0.50;;;0.50;;
15449;SDS011;7826;49.784;9.934;2022-08-19T13:48:03;0.67;;;0.67;;
15449;SDS011;7826;49.784;9.934;2022-08-19T13:50:35;0.60;;;0.60;;
15449;SDS011;7826;49.784;9.934;2022-08-19T13:53:07;0.70;;;0.70;;
15449;SDS011;7826;49.784;9.934;2022-08-19T13:55:35;0.73;;;0.70;;
15449;SDS011;7826;49.784;9.934;2022-08-19T13:58:06;0.80;;;0.80;;
15449;SDS011;7826;49.784;9.934;2022-08-19T14:00:35;0.73;;;0.73;;
15449;SDS011;7826;49.784;9.934;2022-08-19T14:03:04;0.50;;;0.50;;
15449;SDS011;7826;49.784;9.934;2022-08-19T14:05:31;0.60;;;0.60;;
15449;SDS011;7826;49.784;9.934;2022-08-19T14:07:58;0.60;;;0.60;;
15449;SDS011;7826;49.784;9.934;2022-08-19T14:10:25;0.80;;;0.80;;
15449;SDS011;7826;49.784;9.934;2022-08-19T14:12:53;0.57;;;0.57;;
15449;SDS011;7826;49.784;9.934;2022-08-19T14:15:21;0.63;;;0.63;;
15449;SDS011;7826;49.784;9.934;2022-08-19T14:17:48;0.60;;;0.60;;
15449;SDS011;7826;49.784;9.934;2022-08-19T14:20:15;0.60;;;0.60;;
15449;SDS011;7826;49.784;9.934;2022-08-19T14:22:42;0.70;;;0.70;;
15449;SDS011;7826;49.784;9.934;2022-08-19T14:25:10;0.60;;;0.60;;
15449;SDS011;7826;49.784;9.934;2022-08-19T14:27:40;0.63;;;0.63;;
15449;SDS011;7826;49.784;9.934;2022-08-19T14:30:08;0.60;;;0.60;;
15449;SDS011;7826;49.784;9.934;2022-08-19T14:32:36;0.57;;;0.57;;
15449;SDS011;7826;49.784;9.934;2022-08-19T14:35:04;0.70;;;0.70;;
15449;SDS011;7826;49.784;9.934;2022-08-19T14:37:33;0.50;;;0.50;;
15449;SDS011;7826;49.784;9.934;2022-08-19T14:40:01;0.70;;;0.70;;
15449;SDS011;7826;49.784;9.934;2022-08-19T14:42:29;0.60;;;0.60;;
15449;SDS011;7826;49.784;9.934;2022-08-19T14:44:59;0.50;;;0.50;;
15449;SDS011;7826;49.784;9.934;2022-08-19T14:47:26;0.60;;;0.60;;
15449;SDS011;7826;49.784;9.934;2022-08-19T14:49:53;0.87;;;0.83;;
15449;SDS011;7826;49.784;9.934;2022-08-19T14:52:19;0.50;;;0.50;;
15449;SDS011;7826;49.784;9.934;2022-08-19T14:54:46;0.67;;;0.67;;
15449;SDS011;7826;49.784;9.934;2022-08-19T14:57:12;1.43;;;0.87;;
15449;SDS011;7826;49.784;9.934;2022-08-19T14:59:41;0.50;;;0.50;;
15449;SDS011;7826;49.784;9.934;2022-08-19T15:02:08;0.57;;;0.57;;
15449;SDS011;7826;49.784;9.934;2022-08-19T15:04:36;0.60;;;0.60;;
15449;SDS011;7826;49.784;9.934;2022-08-19T15:07:03;0.50;;;0.50;;
15449;SDS011;7826;49.784;9.934;2022-08-19T15:09:32;0.60;;;0.60;;
15449;SDS011;7826;49.784;9.934;2022-08-19T15:12:00;0.40;;;0.40;;
15449;SDS011;7826;49.784;9.934;2022-08-19T15:14:28;0.53;;;0.53;;
15449;SDS011;7826;49.784;9.934;2022-08-19T15:17:01;0.70;;;0.70;;
15449;SDS011;7826;49.784;9.934;2022-08-19T15:19:28;0.57;;;0.57;;
15449;SDS011;7826;49.784;9.934;2022-08-19T15:21:56;0.60;;;0.60;;
15449;SDS011;7826;49.784;9.934;2022-08-19T15:24:23;0.50;;;0.50;;
15449;SDS011;7826;49.784;9.934;2022-08-19T15:26:53;0.60;;;0.60;;
15449;SDS011;7826;49.784;9.934;2022-08-19T15:29:21;0.53;;;0.53;;